• Join FlightAware (Why Join?)
  • Login
  • US Flag 
09:42AM EST


 

Airport Tracker/Info


-or-


 

Live Flight TrackerFlight Track Log ✈ AZU4387 ✈ 06-Jul-2014 ✈ SBSR / SJP - SBKP / VCP

Flight Track Log - Related Links

Times and Time Zones

All times are in EDT time to prevent confusion due to time zone crossing. See the AZU4387 flight status page for this flight to view local times or setup timezone preferences in your user account.

Time Position Orientation Groundspeed Altitude Reporting Facility
EDT Latitude Longitude Course Direction KTS MPH feet Rate Location/Type
11:20AM -21.4009 -48.5944 134° Southeast 231 266 16,100  Level FlightAware ADS-B (SDAM)
11:21AM -21.4244 -48.5685 134° Southeast 230 265 16,300 420 Climbing FlightAware ADS-B (SDAM)
11:21AM -21.4501 -48.5401 134° Southeast 229 264 16,600 540 Climbing FlightAware ADS-B (SDAM)
11:22AM -21.4729 -48.5152 134° Southeast 231 266 16,900 360 Climbing FlightAware ADS-B (SDAM)
11:22AM -21.4813 -48.5060 134° Southeast 232 267 17,000 60 Climbing FlightAware ADS-B (SDAM)
11:23AM -21.5329 -48.4492 134° Southeast 252 290 17,000  Level FlightAware ADS-B (SDAM)
11:23AM -21.5384 -48.4431 134° Southeast 252 290 17,000  Level FlightAware ADS-B (SDAM)
11:38AM -22.4753 -47.7606 142° Southeast 276 318 17,000  Level FlightAware ADS-B (SDAM)
11:39AM -22.5062 -47.7346 142° Southeast 276 318 17,000 -420 Level FlightAware ADS-B (SDAM)
11:39AM -22.5419 -47.7045 141° Southeast 292 336 16,600 -960 Descending FlightAware ADS-B (SDAM)
11:40AM -22.5747 -47.6769 141° Southeast 313 360 16,000 -1,200 Descending FlightAware ADS-B (SDAM)
11:40AM -22.6103 -47.6468 141° Southeast 325 374 15,400 -780 Descending FlightAware ADS-B (SDAM)
11:41AM -22.6696 -47.5968 141° Southeast 314 361 15,000 -300 Descending FlightAware ADS-B (SDAM)
11:42AM -22.7051 -47.5680 146° Southeast 305 351 15,000 -240 Level FlightAware ADS-B (SDAM)
11:42AM -22.7399 -47.5448 148° Southeast 307 353 14,800 -660 Descending FlightAware ADS-B (SDAM)
11:43AM -22.7773 -47.5200 148° Southeast 316 364 14,400 -1,020 Descending FlightAware ADS-B (SDAM)
11:43AM -22.8148 -47.4951 148° Southeast 311 358 13,800 -1,140 Descending FlightAware ADS-B (SDAM)
11:44AM -22.8514 -47.4708 148° Southeast 303 349 13,300 -1,140 Descending FlightAware ADS-B (SDAM)
11:44AM -22.8870 -47.4471 148° Southeast 301 346 12,700 -1,140 Descending FlightAware ADS-B (SDAM)
11:45AM -22.9233 -47.4229 148° Southeast 305 351 12,200 -1,020 Descending FlightAware ADS-B (SDAM)
11:45AM -22.9602 -47.3985 148° Southeast 304 350 11,700 -1,020 Descending FlightAware ADS-B (SDAM)
11:46AM -22.9829 -47.3823 141° Southeast 303 349 11,400 -900 Descending FlightAware ADS-B (SDAM)
11:46AM -23.0023 -47.3613 128° Southeast 297 342 11,100 -960 Descending FlightAware ADS-B (SDAM)
11:46AM -23.0280 -47.3250 127° Southeast 275 316 10,600 -720 Descending FlightAware ADS-B (SDAM)
11:47AM -23.0498 -47.2938 127° Southeast 264 304 10,400 -660 Descending FlightAware ADS-B (SDAM)
11:47AM -23.0690 -47.2664 127° Southeast 264 304 10,000 -1,080 Descending FlightAware ADS-B (SDAM)
11:48AM -23.0800 -47.2508 127° Southeast 260 299 9,700 -1,080 Descending FlightAware ADS-B (SDAM)
11:48AM -23.0903 -47.2362 127° Southeast 259 298 9,500 -840 Descending FlightAware ADS-B (SDAM)
11:48AM -23.1020 -47.2194 127° Southeast 256 295 9,300 -900 Descending FlightAware ADS-B (SDAM)
11:48AM -23.1149 -47.2013 127° Southeast 250 288 9,000 -780 Descending FlightAware ADS-B (SBSP / CGH)
11:49AM -23.1240 -47.1886 127° Southeast 237 273 8,900 -420 Descending FlightAware ADS-B (SBSP / CGH)
11:49AM -23.1343 -47.1741 127° Southeast 217 250 8,800 -840 Descending FlightAware ADS-B (SBSP / CGH)
11:49AM -23.1426 -47.1623 126° Southeast 213 245 8,500 -1,200 Descending FlightAware ADS-B (SBSP / CGH)
11:49AM -23.1528 -47.1476 126° Southeast 220 253 8,200 -1,200 Descending FlightAware ADS-B (SBSP / CGH)
11:50AM -23.1617 -47.1348 127° Southeast 219 252 7,900 -1,200 Descending FlightAware ADS-B (SBSP / CGH)
11:50AM -23.1710 -47.1217 127° Southeast 217 250 7,600 -1,080 Descending FlightAware ADS-B (SBSP / CGH)
11:50AM -23.1788 -47.1107 127° Southeast 214 246 7,400 -840 Descending FlightAware ADS-B (SBSP / CGH)
11:50AM -23.1891 -47.0960 126° Southeast 208 239 7,200 -600 Descending FlightAware ADS-B (SBSP / CGH)
11:51AM -23.1947 -47.0877 126° Southeast 206 237 7,100 -600 Descending FlightAware ADS-B (SBSP / CGH)
11:51AM -23.2060 -47.0715 126° Southeast 200 230 6,900 -720 Descending FlightAware ADS-B (SBSP / CGH)
11:51AM -23.2116 -47.0630 121° Southeast 200 230 6,800 -780 Descending FlightAware ADS-B (SBSP / CGH)
11:51AM -23.2140 -47.0579 108° East 196 226 6,700 -600 Descending FlightAware ADS-B (SBSP / CGH)
11:51AM -23.2147 -47.0540 95° East 190 219 6,700 -600 Level FlightAware ADS-B (SBSP / CGH)
11:51AM -23.2143 -47.0484 81° East 185 213 6,600 -600 Descending FlightAware ADS-B (SBSP / CGH)
11:51AM -23.2132 -47.0446 63° Northeast 180 207 6,600  Level FlightAware ADS-B (SBSP / CGH)
11:51AM -23.2110 -47.0409 54° Northeast 179 206 6,600 -360 Level FlightAware ADS-B (SBSP / CGH)
11:52AM -23.2045 -47.0316 51° Northeast 181 208 6,500 -840 Descending FlightAware ADS-B (SDAM)
11:52AM -23.2033 -47.0301 43° Northeast 181 208 6,400 -720 Descending FlightAware ADS-B (SBSP / CGH)
11:52AM -23.2001 -47.0272 34° Northeast 181 208 6,400 -600 Level FlightAware ADS-B (SBSP / CGH)
11:52AM -23.1959 -47.0243 31° Northeast 184 212 6,300 -960 Descending FlightAware ADS-B (SBSP / CGH)
11:52AM -23.1853 -47.0175 30° Northeast 183 211 6,100 -1,080 Descending FlightAware ADS-B (SBSP / CGH)
11:52AM -23.1734 -47.0108 25° Northeast 188 216 5,800 -1,020 Descending FlightAware ADS-B (SBSP / CGH)
11:53AM -23.1617 -47.0055 22° Northeast 188 216 5,600 -1,020 Descending FlightAware ADS-B (SBSP / CGH)
11:53AM -23.1497 -47.0000 22° Northeast 184 212 5,300 -1,020 Descending FlightAware ADS-B (SBSP / CGH)
11:53AM -23.1373 -46.9943 23° Northeast 187 215 5,100 -780 Descending FlightAware ADS-B (SBSP / CGH)
11:53AM -23.1258 -46.9894 11° North 181 208 4,900 -600 Descending FlightAware ADS-B (SBSP / CGH)
11:53AM -23.1220 -46.9889 North 181 208 4,900 -720 Level FlightAware ADS-B (SBSP / CGH)
11:54AM -23.1171 -46.9894 352° North 181 208 4,800 -720 Descending FlightAware ADS-B (SBSP / CGH)
11:54AM -23.1137 -46.9905 341° North 182 209 4,800 -540 Level FlightAware ADS-B (SBSP / CGH)
11:54AM -23.1085 -46.9940 318° Northwest 187 215 4,700 -480 Descending FlightAware ADS-B (SDAM)
11:54AM -23.1050 -46.9980 312° West 188 216 4,700 -480 Level FlightAware ADS-B (SDAM)
11:54AM -23.1010 -47.0033 309° West 190 219 4,600 -1,140 Descending FlightAware ADS-B (SBSP / CGH)
11:54AM -23.0925 -47.0151 309° West 190 219 4,300 -1,260 Descending FlightAware ADS-B (SBSP / CGH)
11:54AM -23.0874 -47.0224 307° West 180 207 4,000 -1,020 Descending FlightAware ADS-B (SBSP / CGH)
11:55AM -23.0749 -47.0403 307° West 165 190 3,700 -600 Descending FlightAware ADS-B (SDAM)
11:55AM -23.0668 -47.0519 307° West 131 151 3,600 -480 Descending FlightAware ADS-B (SDAM)
11:55AM -23.0597 -47.0620 309° West 118 136 3,400 -720 Descending FlightAware ADS-B (SDAM)
11:56AM -23.0546 -47.0691 308° West 115 132 3,200 -600 Descending FlightAware ADS-B (SDAM)
11:56AM -23.0499 -47.0757 308° West 109 125 3,100 -600 Descending FlightAware ADS-B (SDAM)
11:56AM -23.0449 -47.0825 310° West 110 127 2,900 -840 Descending FlightAware ADS-B (SDAM)
11:56AM -23.0404 -47.0888 309° West 107 123 2,700 -660 Descending FlightAware ADS-B (SDAM)
11:57AM -23.0355 -47.0953 309° West 110 127 2,600 -540 Descending FlightAware ADS-B (SDAM)
11:57AM -23.0290 -47.1044 309° West 115 132 2,400 -720 Descending FlightAware ADS-B (SDAM)
11:57AM -23.0243 -47.1110 308° West 112 129 2,200 -660 Descending FlightAware ADS-B (SDAM)
11:58AM -23.0193 -47.1179 309° West 116 133 2,100 -420 Descending FlightAware ADS-B (SDAM)
12:00PM -23.0082 -47.1347 306° West  Level Estimated